sensor_id;sensor_type;location;lat;lon;timestamp;P1;durP1;ratioP1;P2;durP2;ratioP2
17991;SDS011;9121;50.926;5.340;2023-04-25T00:00:48;17.97;;;4.87;;
17991;SDS011;9121;50.926;5.340;2023-04-25T00:03:15;21.17;;;5.07;;
17991;SDS011;9121;50.926;5.340;2023-04-25T00:05:43;15.03;;;5.20;;
17991;SDS011;9121;50.926;5.340;2023-04-25T00:08:12;15.97;;;4.83;;
17991;SDS011;9121;50.926;5.340;2023-04-25T00:10:38;20.47;;;4.43;;
17991;SDS011;9121;50.926;5.340;2023-04-25T00:13:05;16.40;;;5.10;;
17991;SDS011;9121;50.926;5.340;2023-04-25T00:15:33;21.83;;;5.53;;
17991;SDS011;9121;50.926;5.340;2023-04-25T00:18:01;17.53;;;4.27;;
17991;SDS011;9121;50.926;5.340;2023-04-25T00:20:28;20.53;;;5.57;;
17991;SDS011;9121;50.926;5.340;2023-04-25T00:22:55;17.67;;;4.77;;
17991;SDS011;9121;50.926;5.340;2023-04-25T00:25:24;24.43;;;5.17;;
17991;SDS011;9121;50.926;5.340;2023-04-25T00:27:51;14.50;;;4.13;;
17991;SDS011;9121;50.926;5.340;2023-04-25T00:30:18;28.83;;;5.33;;
17991;SDS011;9121;50.926;5.340;2023-04-25T00:32:45;23.30;;;5.50;;
17991;SDS011;9121;50.926;5.340;2023-04-25T00:35:12;21.30;;;5.23;;
17991;SDS011;9121;50.926;5.340;2023-04-25T00:37:39;16.60;;;5.07;;
17991;SDS011;9121;50.926;5.340;2023-04-25T00:40:06;18.50;;;5.80;;
17991;SDS011;9121;50.926;5.340;2023-04-25T00:42:35;16.90;;;4.90;;
17991;SDS011;9121;50.926;5.340;2023-04-25T00:45:03;20.03;;;6.13;;
17991;SDS011;9121;50.926;5.340;2023-04-25T00:47:32;25.00;;;4.83;;
17991;SDS011;9121;50.926;5.340;2023-04-25T00:49:59;16.70;;;5.40;;
17991;SDS011;9121;50.926;5.340;2023-04-25T00:52:26;21.17;;;5.23;;
17991;SDS011;9121;50.926;5.340;2023-04-25T00:54:53;17.07;;;4.87;;
17991;SDS011;9121;50.926;5.340;2023-04-25T00:57:20;18.53;;;5.50;;
17991;SDS011;9121;50.926;5.340;2023-04-25T00:59:49;19.43;;;4.80;;
17991;SDS011;9121;50.926;5.340;2023-04-25T01:02:18;16.20;;;5.07;;
17991;SDS011;9121;50.926;5.340;2023-04-25T01:04:45;20.07;;;5.47;;
17991;SDS011;9121;50.926;5.340;2023-04-25T01:07:13;13.57;;;5.03;;
17991;SDS011;9121;50.926;5.340;2023-04-25T01:09:41;17.67;;;5.73;;
17991;SDS011;9121;50.926;5.340;2023-04-25T01:12:08;20.07;;;5.00;;
17991;SDS011;9121;50.926;5.340;2023-04-25T01:14:35;24.40;;;5.43;;
17991;SDS011;9121;50.926;5.340;2023-04-25T01:17:03;19.50;;;5.27;;
17991;SDS011;9121;50.926;5.340;2023-04-25T01:19:32;25.50;;;5.50;;
17991;SDS011;9121;50.926;5.340;2023-04-25T01:22:02;17.97;;;5.23;;
17991;SDS011;9121;50.926;5.340;2023-04-25T01:24:29;24.13;;;5.57;;
17991;SDS011;9121;50.926;5.340;2023-04-25T01:26:57;22.57;;;5.87;;
17991;SDS011;9121;50.926;5.340;2023-04-25T01:29:27;24.17;;;5.20;;
17991;SDS011;9121;50.926;5.340;2023-04-25T01:31:54;16.87;;;5.67;;
17991;SDS011;9121;50.926;5.340;2023-04-25T01:34:23;25.47;;;5.80;;
17991;SDS011;9121;50.926;5.340;2023-04-25T01:36:51;21.37;;;5.57;;
17991;SDS011;9121;50.926;5.340;2023-04-25T01:39:20;20.33;;;5.20;;
17991;SDS011;9121;50.926;5.340;2023-04-25T01:41:47;26.23;;;6.03;;
17991;SDS011;9121;50.926;5.340;2023-04-25T01:44:15;23.80;;;5.30;;
17991;SDS011;9121;50.926;5.340;2023-04-25T01:46:42;22.57;;;5.27;;
17991;SDS011;9121;50.926;5.340;2023-04-25T01:49:09;21.50;;;5.67;;
17991;SDS011;9121;50.926;5.340;2023-04-25T01:51:36;20.70;;;5.90;;
17991;SDS011;9121;50.926;5.340;2023-04-25T01:54:03;21.57;;;5.27;;
17991;SDS011;9121;50.926;5.340;2023-04-25T01:56:31;23.33;;;5.80;;
17991;SDS011;9121;50.926;5.340;2023-04-25T01:58:59;41.33;;;6.80;;
17991;SDS011;9121;50.926;5.340;2023-04-25T02:01:26;24.77;;;5.90;;
17991;SDS011;9121;50.926;5.340;2023-04-25T02:03:53;23.17;;;5.37;;
17991;SDS011;9121;50.926;5.340;2023-04-25T02:06:20;21.00;;;5.53;;
17991;SDS011;9121;50.926;5.340;2023-04-25T02:08:47;22.13;;;5.37;;
17991;SDS011;9121;50.926;5.340;2023-04-25T02:11:14;23.97;;;5.13;;
17991;SDS011;9121;50.926;5.340;2023-04-25T02:13:42;27.23;;;6.17;;
17991;SDS011;9121;50.926;5.340;2023-04-25T02:16:09;22.27;;;6.23;;
17991;SDS011;9121;50.926;5.340;2023-04-25T02:18:36;25.47;;;4.83;;
17991;SDS011;9121;50.926;5.340;2023-04-25T02:21:04;17.13;;;5.40;;
17991;SDS011;9121;50.926;5.340;2023-04-25T02:23:31;16.93;;;5.27;;
17991;SDS011;9121;50.926;5.340;2023-04-25T02:25:58;21.83;;;5.60;;
17991;SDS011;9121;50.926;5.340;2023-04-25T02:28:25;18.57;;;5.40;;
17991;SDS011;9121;50.926;5.340;2023-04-25T02:30:53;21.10;;;5.63;;
17991;SDS011;9121;50.926;5.340;2023-04-25T02:33:20;20.53;;;5.47;;
17991;SDS011;9121;50.926;5.340;2023-04-25T02:35:47;22.53;;;5.50;;
17991;SDS011;9121;50.926;5.340;2023-04-25T02:38:14;20.77;;;6.50;;
17991;SDS011;9121;50.926;5.340;2023-04-25T02:40:41;19.77;;;5.57;;
17991;SDS011;9121;50.926;5.340;2023-04-25T02:43:08;31.10;;;6.80;;
17991;SDS011;9121;50.926;5.340;2023-04-25T02:45:35;25.53;;;6.77;;
17991;SDS011;9121;50.926;5.340;2023-04-25T02:48:04;25.87;;;5.90;;
17991;SDS011;9121;50.926;5.340;2023-04-25T02:50:31;19.40;;;5.80;;
17991;SDS011;9121;50.926;5.340;2023-04-25T02:52:58;26.77;;;6.00;;
17991;SDS011;9121;50.926;5.340;2023-04-25T02:55:25;22.57;;;5.93;;
17991;SDS011;9121;50.926;5.340;2023-04-25T02:57:52;26.43;;;6.20;;
17991;SDS011;9121;50.926;5.340;2023-04-25T03:00:20;19.67;;;5.40;;
17991;SDS011;9121;50.926;5.340;2023-04-25T03:02:47;19.43;;;6.17;;
17991;SDS011;9121;50.926;5.340;2023-04-25T03:05:16;16.57;;;5.50;;
17991;SDS011;9121;50.926;5.340;2023-04-25T03:07:43;20.70;;;5.27;;
17991;SDS011;9121;50.926;5.340;2023-04-25T03:10:11;29.97;;;7.20;;
17991;SDS011;9121;50.926;5.340;2023-04-25T03:12:38;23.37;;;6.53;;
17991;SDS011;9121;50.926;5.340;2023-04-25T03:15:05;22.63;;;6.53;;
17991;SDS011;9121;50.926;5.340;2023-04-25T03:17:32;22.03;;;6.57;;
17991;SDS011;9121;50.926;5.340;2023-04-25T03:19:59;32.53;;;7.33;;
17991;SDS011;9121;50.926;5.340;2023-04-25T03:22:28;28.70;;;6.20;;
17991;SDS011;9121;50.926;5.340;2023-04-25T03:24:55;23.73;;;6.20;;
17991;SDS011;9121;50.926;5.340;2023-04-25T03:27:22;22.73;;;6.30;;
17991;SDS011;9121;50.926;5.340;2023-04-25T03:29:49;21.33;;;6.03;;
17991;SDS011;9121;50.926;5.340;2023-04-25T03:32:15;27.33;;;7.20;;
17991;SDS011;9121;50.926;5.340;2023-04-25T03:34:42;21.30;;;6.03;;
17991;SDS011;9121;50.926;5.340;2023-04-25T03:37:09;16.20;;;5.70;;
17991;SDS011;9121;50.926;5.340;2023-04-25T03:39:37;27.77;;;6.93;;
17991;SDS011;9121;50.926;5.340;2023-04-25T03:42:04;24.37;;;6.87;;
17991;SDS011;9121;50.926;5.340;2023-04-25T03:44:31;24.57;;;5.87;;
17991;SDS011;9121;50.926;5.340;2023-04-25T03:46:58;25.63;;;6.30;;
17991;SDS011;9121;50.926;5.340;2023-04-25T03:49:25;24.13;;;5.73;;
17991;SDS011;9121;50.926;5.340;2023-04-25T03:51:52;24.00;;;5.43;;
17991;SDS011;9121;50.926;5.340;2023-04-25T03:54:19;19.97;;;5.57;;
17991;SDS011;9121;50.926;5.340;2023-04-25T03:56:47;23.23;;;6.53;;
17991;SDS011;9121;50.926;5.340;2023-04-25T03:59:14;25.83;;;5.73;;
17991;SDS011;9121;50.926;5.340;2023-04-25T04:01:41;27.83;;;6.37;;
17991;SDS011;9121;50.926;5.340;2023-04-25T04:04:08;35.97;;;6.83;;
17991;SDS011;9121;50.926;5.340;2023-04-25T04:06:35;32.20;;;6.70;;
17991;SDS011;9121;50.926;5.340;2023-04-25T04:09:03;25.13;;;6.30;;
17991;SDS011;9121;50.926;5.340;2023-04-25T04:11:31;30.57;;;6.77;;
17991;SDS011;9121;50.926;5.340;2023-04-25T04:13:59;26.63;;;7.27;;
17991;SDS011;9121;50.926;5.340;2023-04-25T04:16:26;21.23;;;6.57;;
17991;SDS011;9121;50.926;5.340;2023-04-25T04:18:53;20.80;;;7.40;;
17991;SDS011;9121;50.926;5.340;2023-04-25T04:21:20;22.87;;;6.47;;
17991;SDS011;9121;50.926;5.340;2023-04-25T04:23:47;32.97;;;6.83;;
17991;SDS011;9121;50.926;5.340;2023-04-25T04:26:14;27.67;;;5.80;;
17991;SDS011;9121;50.926;5.340;2023-04-25T04:28:41;25.90;;;5.73;;
17991;SDS011;9121;50.926;5.340;2023-04-25T04:31:10;21.03;;;5.67;;
17991;SDS011;9121;50.926;5.340;2023-04-25T04:33:37;21.30;;;4.73;;
17991;SDS011;9121;50.926;5.340;2023-04-25T04:36:05;21.03;;;5.13;;
17991;SDS011;9121;50.926;5.340;2023-04-25T04:38:32;21.10;;;5.10;;
17991;SDS011;9121;50.926;5.340;2023-04-25T04:40:59;14.30;;;4.00;;
17991;SDS011;9121;50.926;5.340;2023-04-25T04:43:27;19.10;;;4.10;;
17991;SDS011;9121;50.926;5.340;2023-04-25T04:45:54;14.03;;;4.17;;
17991;SDS011;9121;50.926;5.340;2023-04-25T04:48:23;18.40;;;4.20;;
17991;SDS011;9121;50.926;5.340;2023-04-25T04:50:50;15.83;;;3.77;;
17991;SDS011;9121;50.926;5.340;2023-04-25T04:53:18;17.13;;;3.97;;
17991;SDS011;9121;50.926;5.340;2023-04-25T04:55:45;12.93;;;3.93;;
17991;SDS011;9121;50.926;5.340;2023-04-25T04:58:12;12.37;;;3.63;;
17991;SDS011;9121;50.926;5.340;2023-04-25T05:00:39;13.60;;;3.30;;
17991;SDS011;9121;50.926;5.340;2023-04-25T05:03:06;15.67;;;3.77;;
17991;SDS011;9121;50.926;5.340;2023-04-25T05:05:34;15.00;;;3.83;;
17991;SDS011;9121;50.926;5.340;2023-04-25T05:08:04;17.93;;;4.33;;
17991;SDS011;9121;50.926;5.340;2023-04-25T05:10:31;17.03;;;4.40;;
17991;SDS011;9121;50.926;5.340;2023-04-25T05:12:59;18.83;;;3.87;;
17991;SDS011;9121;50.926;5.340;2023-04-25T05:15:25;16.70;;;4.27;;
17991;SDS011;9121;50.926;5.340;2023-04-25T05:17:52;16.67;;;4.47;;
17991;SDS011;9121;50.926;5.340;2023-04-25T05:20:19;13.83;;;3.63;;
17991;SDS011;9121;50.926;5.340;2023-04-25T05:22:48;56.30;;;7.03;;
17991;SDS011;9121;50.926;5.340;2023-04-25T05:25:15;20.90;;;3.93;;
17991;SDS011;9121;50.926;5.340;2023-04-25T05:27:41;10.90;;;3.77;;
17991;SDS011;9121;50.926;5.340;2023-04-25T05:30:08;15.70;;;3.80;;
17991;SDS011;9121;50.926;5.340;2023-04-25T05:32:36;13.33;;;3.57;;
17991;SDS011;9121;50.926;5.340;2023-04-25T05:35:03;15.63;;;3.80;;
17991;SDS011;9121;50.926;5.340;2023-04-25T05:37:31;16.90;;;4.10;;
17991;SDS011;9121;50.926;5.340;2023-04-25T05:40:00;11.80;;;3.87;;
17991;SDS011;9121;50.926;5.340;2023-04-25T05:42:31;17.50;;;4.10;;
17991;SDS011;9121;50.926;5.340;2023-04-25T05:44:58;21.30;;;5.10;;
17991;SDS011;9121;50.926;5.340;2023-04-25T05:47:25;20.43;;;5.23;;
17991;SDS011;9121;50.926;5.340;2023-04-25T05:49:52;18.57;;;3.83;;
17991;SDS011;9121;50.926;5.340;2023-04-25T05:52:19;14.10;;;4.03;;
17991;SDS011;9121;50.926;5.340;2023-04-25T05:54:46;16.07;;;3.97;;
17991;SDS011;9121;50.926;5.340;2023-04-25T05:57:20;19.67;;;4.57;;
17991;SDS011;9121;50.926;5.340;2023-04-25T05:59:48;17.20;;;4.30;;
17991;SDS011;9121;50.926;5.340;2023-04-25T06:02:14;19.97;;;4.37;;
17991;SDS011;9121;50.926;5.340;2023-04-25T06:04:42;25.17;;;4.40;;
17991;SDS011;9121;50.926;5.340;2023-04-25T06:07:09;18.30;;;4.50;;
17991;SDS011;9121;50.926;5.340;2023-04-25T06:09:36;14.97;;;4.83;;
17991;SDS011;9121;50.926;5.340;2023-04-25T06:12:04;28.23;;;5.03;;
17991;SDS011;9121;50.926;5.340;2023-04-25T06:14:33;20.20;;;4.30;;
17991;SDS011;9121;50.926;5.340;2023-04-25T06:17:00;23.20;;;5.20;;
17991;SDS011;9121;50.926;5.340;2023-04-25T06:19:31;23.07;;;5.10;;
17991;SDS011;9121;50.926;5.340;2023-04-25T06:21:58;17.60;;;4.77;;
17991;SDS011;9121;50.926;5.340;2023-04-25T06:24:25;19.17;;;4.57;;
17991;SDS011;9121;50.926;5.340;2023-04-25T06:26:52;20.53;;;5.03;;
17991;SDS011;9121;50.926;5.340;2023-04-25T06:29:19;25.90;;;5.17;;
17991;SDS011;9121;50.926;5.340;2023-04-25T06:31:47;23.60;;;4.87;;
17991;SDS011;9121;50.926;5.340;2023-04-25T06:34:15;17.70;;;4.50;;
17991;SDS011;9121;50.926;5.340;2023-04-25T06:36:42;18.50;;;5.40;;
17991;SDS011;9121;50.926;5.340;2023-04-25T06:39:10;12.87;;;5.00;;
17991;SDS011;9121;50.926;5.340;2023-04-25T06:41:37;26.20;;;6.07;;
17991;SDS011;9121;50.926;5.340;2023-04-25T06:44:04;21.47;;;6.70;;
17991;SDS011;9121;50.926;5.340;2023-04-25T06:46:31;23.50;;;6.00;;
17991;SDS011;9121;50.926;5.340;2023-04-25T06:48:59;30.83;;;7.30;;
17991;SDS011;9121;50.926;5.340;2023-04-25T06:51:26;26.00;;;7.03;;
17991;SDS011;9121;50.926;5.340;2023-04-25T06:53:55;23.23;;;6.57;;
17991;SDS011;9121;50.926;5.340;2023-04-25T06:56:22;25.57;;;6.30;;
17991;SDS011;9121;50.926;5.340;2023-04-25T06:58:49;17.20;;;6.33;;
17991;SDS011;9121;50.926;5.340;2023-04-25T07:01:16;21.93;;;6.40;;
17991;SDS011;9121;50.926;5.340;2023-04-25T07:03:43;22.63;;;6.70;;
17991;SDS011;9121;50.926;5.340;2023-04-25T07:06:12;23.07;;;5.47;;
17991;SDS011;9121;50.926;5.340;2023-04-25T07:08:40;27.77;;;5.70;;
17991;SDS011;9121;50.926;5.340;2023-04-25T07:11:06;23.83;;;6.13;;
17991;SDS011;9121;50.926;5.340;2023-04-25T07:13:33;30.60;;;6.53;;
17991;SDS011;9121;50.926;5.340;2023-04-25T07:16:00;26.13;;;6.23;;
17991;SDS011;9121;50.926;5.340;2023-04-25T07:18:28;28.40;;;6.47;;
17991;SDS011;9121;50.926;5.340;2023-04-25T07:20:55;23.60;;;7.40;;
17991;SDS011;9121;50.926;5.340;2023-04-25T07:23:23;26.13;;;7.27;;
17991;SDS011;9121;50.926;5.340;2023-04-25T07:25:50;23.33;;;7.10;;
17991;SDS011;9121;50.926;5.340;2023-04-25T07:28:17;40.67;;;7.97;;
17991;SDS011;9121;50.926;5.340;2023-04-25T07:30:44;28.47;;;6.63;;
17991;SDS011;9121;50.926;5.340;2023-04-25T07:33:11;19.30;;;6.37;;
17991;SDS011;9121;50.926;5.340;2023-04-25T07:35:38;20.07;;;6.23;;
17991;SDS011;9121;50.926;5.340;2023-04-25T07:38:05;19.43;;;6.80;;
17991;SDS011;9121;50.926;5.340;2023-04-25T07:40:34;25.27;;;5.47;;
17991;SDS011;9121;50.926;5.340;2023-04-25T07:43:01;28.47;;;5.67;;
17991;SDS011;9121;50.926;5.340;2023-04-25T07:45:28;26.37;;;5.80;;
17991;SDS011;9121;50.926;5.340;2023-04-25T07:47:55;19.43;;;4.63;;
17991;SDS011;9121;50.926;5.340;2023-04-25T07:50:22;17.80;;;5.00;;
17991;SDS011;9121;50.926;5.340;2023-04-25T07:52:49;17.77;;;4.40;;
17991;SDS011;9121;50.926;5.340;2023-04-25T07:55:16;13.60;;;3.47;;
17991;SDS011;9121;50.926;5.340;2023-04-25T07:57:44;14.53;;;3.90;;
17991;SDS011;9121;50.926;5.340;2023-04-25T08:00:12;17.03;;;3.83;;
17991;SDS011;9121;50.926;5.340;2023-04-25T08:02:40;20.37;;;3.27;;
17991;SDS011;9121;50.926;5.340;2023-04-25T08:05:07;21.57;;;3.30;;
17991;SDS011;9121;50.926;5.340;2023-04-25T08:07:39;13.37;;;2.60;;
17991;SDS011;9121;50.926;5.340;2023-04-25T08:10:06;14.43;;;3.27;;
17991;SDS011;9121;50.926;5.340;2023-04-25T08:12:34;18.90;;;4.13;;
17991;SDS011;9121;50.926;5.340;2023-04-25T08:15:03;14.63;;;3.17;;
17991;SDS011;9121;50.926;5.340;2023-04-25T08:17:31;12.23;;;2.40;;
17991;SDS011;9121;50.926;5.340;2023-04-25T08:19:58;18.23;;;3.43;;
17991;SDS011;9121;50.926;5.340;2023-04-25T08:22:25;7.93;;;2.40;;
17991;SDS011;9121;50.926;5.340;2023-04-25T08:24:52;14.87;;;3.30;;
17991;SDS011;9121;50.926;5.340;2023-04-25T08:27:19;13.17;;;2.60;;
17991;SDS011;9121;50.926;5.340;2023-04-25T08:29:46;13.50;;;3.17;;
17991;SDS011;9121;50.926;5.340;2023-04-25T08:32:15;13.23;;;3.73;;
17991;SDS011;9121;50.926;5.340;2023-04-25T08:34:42;20.70;;;3.43;;
17991;SDS011;9121;50.926;5.340;2023-04-25T08:37:09;16.10;;;3.20;;
17991;SDS011;9121;50.926;5.340;2023-04-25T08:39:36;15.80;;;3.27;;
17991;SDS011;9121;50.926;5.340;2023-04-25T08:42:04;20.17;;;3.40;;
17991;SDS011;9121;50.926;5.340;2023-04-25T08:44:32;11.90;;;3.03;;
17991;SDS011;9121;50.926;5.340;2023-04-25T08:47:00;18.50;;;3.47;;
17991;SDS011;9121;50.926;5.340;2023-04-25T08:49:30;9.30;;;2.77;;
17991;SDS011;9121;50.926;5.340;2023-04-25T08:51:59;12.83;;;3.50;;
17991;SDS011;9121;50.926;5.340;2023-04-25T08:54:27;10.60;;;2.83;;
17991;SDS011;9121;50.926;5.340;2023-04-25T08:56:56;14.57;;;3.37;;
17991;SDS011;9121;50.926;5.340;2023-04-25T08:59:24;10.43;;;3.07;;
17991;SDS011;9121;50.926;5.340;2023-04-25T09:01:51;19.23;;;3.63;;
17991;SDS011;9121;50.926;5.340;2023-04-25T09:04:18;12.93;;;2.97;;
17991;SDS011;9121;50.926;5.340;2023-04-25T09:06:46;12.40;;;3.47;;
17991;SDS011;9121;50.926;5.340;2023-04-25T09:09:14;16.83;;;4.27;;
17991;SDS011;9121;50.926;5.340;2023-04-25T09:11:41;24.27;;;4.03;;
17991;SDS011;9121;50.926;5.340;2023-04-25T09:14:12;14.27;;;4.37;;
17991;SDS011;9121;50.926;5.340;2023-04-25T09:16:59;15.97;;;4.10;;
17991;SDS011;9121;50.926;5.340;2023-04-25T09:19:28;14.17;;;4.20;;
17991;SDS011;9121;50.926;5.340;2023-04-25T09:21:57;19.97;;;4.97;;
17991;SDS011;9121;50.926;5.340;2023-04-25T09:24:32;13.50;;;4.10;;
17991;SDS011;9121;50.926;5.340;2023-04-25T09:27:02;23.50;;;4.70;;
17991;SDS011;9121;50.926;5.340;2023-04-25T09:29:30;15.93;;;4.70;;
17991;SDS011;9121;50.926;5.340;2023-04-25T09:32:10;14.30;;;3.53;;
17991;SDS011;9121;50.926;5.340;2023-04-25T09:34:39;19.93;;;4.20;;
17991;SDS011;9121;50.926;5.340;2023-04-25T09:37:09;16.67;;;4.10;;
17991;SDS011;9121;50.926;5.340;2023-04-25T09:39:36;14.93;;;3.80;;
17991;SDS011;9121;50.926;5.340;2023-04-25T09:42:03;15.57;;;3.67;;
17991;SDS011;9121;50.926;5.340;2023-04-25T09:44:31;9.90;;;3.23;;
17991;SDS011;9121;50.926;5.340;2023-04-25T09:46:58;15.00;;;4.00;;
17991;SDS011;9121;50.926;5.340;2023-04-25T09:49:25;10.50;;;2.70;;
17991;SDS011;9121;50.926;5.340;2023-04-25T09:51:56;20.90;;;4.20;;
17991;SDS011;9121;50.926;5.340;2023-04-25T09:54:25;7.53;;;2.80;;
17991;SDS011;9121;50.926;5.340;2023-04-25T09:56:53;7.20;;;2.97;;
17991;SDS011;9121;50.926;5.340;2023-04-25T09:59:20;10.90;;;3.40;;
17991;SDS011;9121;50.926;5.340;2023-04-25T10:01:49;11.97;;;2.97;;
17991;SDS011;9121;50.926;5.340;2023-04-25T10:04:19;9.07;;;2.40;;
17991;SDS011;9121;50.926;5.340;2023-04-25T10:06:49;7.68;;;2.33;;
17991;SDS011;9121;50.926;5.340;2023-04-25T10:09:18;11.30;;;2.70;;
17991;SDS011;9121;50.926;5.340;2023-04-25T10:11:48;11.67;;;2.83;;
17991;SDS011;9121;50.926;5.340;2023-04-25T10:14:15;11.82;;;2.35;;
17991;SDS011;9121;50.926;5.340;2023-04-25T10:16:43;16.10;;;3.45;;
17991;SDS011;9121;50.926;5.340;2023-04-25T10:19:11;9.68;;;3.42;;
17991;SDS011;9121;50.926;5.340;2023-04-25T10:21:40;11.00;;;3.30;;
17991;SDS011;9121;50.926;5.340;2023-04-25T10:24:14;9.52;;;2.78;;
17991;SDS011;9121;50.926;5.340;2023-04-25T10:26:41;10.65;;;2.30;;
17991;SDS011;9121;50.926;5.340;2023-04-25T10:29:10;8.57;;;2.67;;
17991;SDS011;9121;50.926;5.340;2023-04-25T10:31:44;10.60;;;2.73;;
17991;SDS011;9121;50.926;5.340;2023-04-25T10:34:12;15.53;;;2.97;;
17991;SDS011;9121;50.926;5.340;2023-04-25T10:36:39;9.97;;;2.90;;
17991;SDS011;9121;50.926;5.340;2023-04-25T10:39:06;9.60;;;2.92;;
17991;SDS011;9121;50.926;5.340;2023-04-25T10:41:45;13.40;;;2.60;;
17991;SDS011;9121;50.926;5.340;2023-04-25T10:44:14;6.80;;;2.43;;
17991;SDS011;9121;50.926;5.340;2023-04-25T10:46:41;12.20;;;2.60;;
17991;SDS011;9121;50.926;5.340;2023-04-25T10:49:11;7.73;;;2.50;;
17991;SDS011;9121;50.926;5.340;2023-04-25T10:52:10;10.70;;;2.33;;
17991;SDS011;9121;50.926;5.340;2023-04-25T10:54:48;14.97;;;2.90;;
17991;SDS011;9121;50.926;5.340;2023-04-25T10:57:27;8.15;;;1.85;;
17991;SDS011;9121;50.926;5.340;2023-04-25T11:00:07;4.03;;;1.52;;
17991;SDS011;9121;50.926;5.340;2023-04-25T11:02:37;4.82;;;1.60;;
17991;SDS011;9121;50.926;5.340;2023-04-25T11:05:08;9.52;;;2.08;;
17991;SDS011;9121;50.926;5.340;2023-04-25T11:07:37;5.80;;;1.52;;
17991;SDS011;9121;50.926;5.340;2023-04-25T11:10:13;7.00;;;1.57;;
17991;SDS011;9121;50.926;5.340;2023-04-25T11:12:40;6.18;;;1.42;;
17991;SDS011;9121;50.926;5.340;2023-04-25T11:15:09;3.35;;;1.08;;
17991;SDS011;9121;50.926;5.340;2023-04-25T11:17:36;4.63;;;1.30;;
17991;SDS011;9121;50.926;5.340;2023-04-25T11:20:04;4.35;;;1.30;;
17991;SDS011;9121;50.926;5.340;2023-04-25T11:22:36;6.78;;;2.00;;
17991;SDS011;9121;50.926;5.340;2023-04-25T11:25:04;6.80;;;1.58;;
17991;SDS011;9121;50.926;5.340;2023-04-25T11:27:32;6.25;;;1.67;;
17991;SDS011;9121;50.926;5.340;2023-04-25T11:30:10;5.70;;;1.90;;
17991;SDS011;9121;50.926;5.340;2023-04-25T11:32:39;5.15;;;1.40;;
17991;SDS011;9121;50.926;5.340;2023-04-25T11:35:07;4.93;;;1.40;;
17991;SDS011;9121;50.926;5.340;2023-04-25T11:37:34;6.85;;;2.05;;
17991;SDS011;9121;50.926;5.340;2023-04-25T11:40:02;8.65;;;1.67;;
17991;SDS011;9121;50.926;5.340;2023-04-25T11:42:31;10.80;;;1.88;;
17991;SDS011;9121;50.926;5.340;2023-04-25T11:44:59;4.80;;;1.58;;
17991;SDS011;9121;50.926;5.340;2023-04-25T11:47:31;5.35;;;1.50;;
17991;SDS011;9121;50.926;5.340;2023-04-25T11:49:59;7.28;;;1.85;;
17991;SDS011;9121;50.926;5.340;2023-04-25T11:52:35;11.20;;;2.38;;
17991;SDS011;9121;50.926;5.340;2023-04-25T11:55:04;11.75;;;2.38;;
17991;SDS011;9121;50.926;5.340;2023-04-25T11:57:32;6.07;;;2.08;;
17991;SDS011;9121;50.926;5.340;2023-04-25T12:00:07;5.00;;;1.60;;
17991;SDS011;9121;50.926;5.340;2023-04-25T12:02:39;6.53;;;1.42;;
17991;SDS011;9121;50.926;5.340;2023-04-25T12:05:07;6.40;;;1.73;;
17991;SDS011;9121;50.926;5.340;2023-04-25T12:07:35;2.67;;;1.40;;
17991;SDS011;9121;50.926;5.340;2023-04-25T12:10:06;9.07;;;2.75;;
17991;SDS011;9121;50.926;5.340;2023-04-25T12:12:35;7.68;;;1.80;;
17991;SDS011;9121;50.926;5.340;2023-04-25T12:15:09;8.98;;;1.85;;
17991;SDS011;9121;50.926;5.340;2023-04-25T12:17:39;4.20;;;1.75;;
17991;SDS011;9121;50.926;5.340;2023-04-25T12:20:07;4.10;;;1.52;;
17991;SDS011;9121;50.926;5.340;2023-04-25T12:22:35;5.57;;;1.70;;
17991;SDS011;9121;50.926;5.340;2023-04-25T12:25:02;4.63;;;2.05;;
17991;SDS011;9121;50.926;5.340;2023-04-25T12:27:30;14.15;;;2.47;;
17991;SDS011;9121;50.926;5.340;2023-04-25T12:29:58;9.55;;;2.83;;
17991;SDS011;9121;50.926;5.340;2023-04-25T12:32:25;11.85;;;2.60;;
17991;SDS011;9121;50.926;5.340;2023-04-25T12:34:53;6.50;;;2.25;;
17991;SDS011;9121;50.926;5.340;2023-04-25T12:37:20;6.97;;;2.47;;
17991;SDS011;9121;50.926;5.340;2023-04-25T12:39:47;5.87;;;1.93;;
17991;SDS011;9121;50.926;5.340;2023-04-25T12:42:14;5.40;;;2.23;;
17991;SDS011;9121;50.926;5.340;2023-04-25T12:44:41;7.37;;;2.13;;
17991;SDS011;9121;50.926;5.340;2023-04-25T12:47:08;6.97;;;1.90;;
17991;SDS011;9121;50.926;5.340;2023-04-25T12:49:35;5.95;;;2.20;;
17991;SDS011;9121;50.926;5.340;2023-04-25T12:52:04;7.25;;;1.98;;
17991;SDS011;9121;50.926;5.340;2023-04-25T12:54:30;8.57;;;2.37;;
17991;SDS011;9121;50.926;5.340;2023-04-25T12:56:57;5.50;;;2.28;;
17991;SDS011;9121;50.926;5.340;2023-04-25T12:59:26;7.05;;;2.17;;
17991;SDS011;9121;50.926;5.340;2023-04-25T13:01:53;7.32;;;1.98;;
17991;SDS011;9121;50.926;5.340;2023-04-25T13:04:20;5.90;;;1.65;;
17991;SDS011;9121;50.926;5.340;2023-04-25T13:06:47;11.48;;;2.10;;
17991;SDS011;9121;50.926;5.340;2023-04-25T13:09:15;7.32;;;2.28;;
17991;SDS011;9121;50.926;5.340;2023-04-25T13:11:42;5.57;;;1.83;;
17991;SDS011;9121;50.926;5.340;2023-04-25T13:14:10;4.97;;;1.60;;
17991;SDS011;9121;50.926;5.340;2023-04-25T13:16:37;7.45;;;1.83;;
17991;SDS011;9121;50.926;5.340;2023-04-25T13:19:04;8.32;;;2.22;;
17991;SDS011;9121;50.926;5.340;2023-04-25T13:21:32;6.70;;;1.95;;
17991;SDS011;9121;50.926;5.340;2023-04-25T13:24:00;8.40;;;2.20;;
17991;SDS011;9121;50.926;5.340;2023-04-25T13:26:28;8.82;;;2.38;;
17991;SDS011;9121;50.926;5.340;2023-04-25T13:28:55;9.68;;;2.20;;
17991;SDS011;9121;50.926;5.340;2023-04-25T13:31:23;7.88;;;1.70;;
17991;SDS011;9121;50.926;5.340;2023-04-25T13:33:50;7.78;;;2.15;;
17991;SDS011;9121;50.926;5.340;2023-04-25T13:36:17;10.45;;;2.28;;
17991;SDS011;9121;50.926;5.340;2023-04-25T13:38:44;8.50;;;2.58;;
17991;SDS011;9121;50.926;5.340;2023-04-25T13:41:12;7.28;;;2.42;;
17991;SDS011;9121;50.926;5.340;2023-04-25T13:43:45;7.57;;;2.60;;
17991;SDS011;9121;50.926;5.340;2023-04-25T13:46:13;9.27;;;2.60;;
17991;SDS011;9121;50.926;5.340;2023-04-25T13:48:41;15.40;;;2.50;;
17991;SDS011;9121;50.926;5.340;2023-04-25T13:51:12;11.63;;;2.92;;
17991;SDS011;9121;50.926;5.340;2023-04-25T13:53:40;10.20;;;2.33;;
17991;SDS011;9121;50.926;5.340;2023-04-25T13:56:07;7.57;;;2.20;;
17991;SDS011;9121;50.926;5.340;2023-04-25T13:58:34;8.35;;;1.85;;
17991;SDS011;9121;50.926;5.340;2023-04-25T14:01:03;14.13;;;1.88;;
17991;SDS011;9121;50.926;5.340;2023-04-25T14:03:30;9.23;;;2.33;;
17991;SDS011;9121;50.926;5.340;2023-04-25T14:05:57;6.65;;;1.98;;
17991;SDS011;9121;50.926;5.340;2023-04-25T14:08:24;9.95;;;2.15;;
17991;SDS011;9121;50.926;5.340;2023-04-25T14:10:51;8.82;;;2.15;;
17991;SDS011;9121;50.926;5.340;2023-04-25T14:13:18;6.88;;;2.25;;
17991;SDS011;9121;50.926;5.340;2023-04-25T14:15:45;8.02;;;2.13;;
17991;SDS011;9121;50.926;5.340;2023-04-25T14:18:13;4.82;;;2.08;;
17991;SDS011;9121;50.926;5.340;2023-04-25T14:20:40;10.68;;;2.95;;
17991;SDS011;9121;50.926;5.340;2023-04-25T14:23:07;8.02;;;2.15;;
17991;SDS011;9121;50.926;5.340;2023-04-25T14:25:34;10.95;;;2.33;;
17991;SDS011;9121;50.926;5.340;2023-04-25T14:28:02;10.38;;;2.33;;
17991;SDS011;9121;50.926;5.340;2023-04-25T14:30:29;5.45;;;1.88;;
17991;SDS011;9121;50.926;5.340;2023-04-25T14:32:57;5.45;;;1.60;;
17991;SDS011;9121;50.926;5.340;2023-04-25T14:35:25;5.93;;;1.95;;
17991;SDS011;9121;50.926;5.340;2023-04-25T14:37:52;15.23;;;2.40;;
17991;SDS011;9121;50.926;5.340;2023-04-25T14:40:20;8.05;;;2.13;;
17991;SDS011;9121;50.926;5.340;2023-04-25T14:42:48;7.68;;;1.98;;
17991;SDS011;9121;50.926;5.340;2023-04-25T14:45:15;8.90;;;1.98;;
17991;SDS011;9121;50.926;5.340;2023-04-25T14:47:42;4.18;;;1.85;;
17991;SDS011;9121;50.926;5.340;2023-04-25T14:50:09;3.63;;;1.42;;
17991;SDS011;9121;50.926;5.340;2023-04-25T14:52:38;6.72;;;1.55;;
17991;SDS011;9121;50.926;5.340;2023-04-25T14:55:05;9.48;;;2.13;;